Terminal Aerodrome Forecast
Issued by NWS Sioux Falls, SD

Home | Current Version | Previous Version | Graphics & Text | Print | Product List | Glossary On
Versions: 1 2 3 4 5 6 7 8 9 10 11 12 13
000
FTUS43 KFSD 161138
TAFSUX
TAF
KSUX 161138Z 1612/1712 32010KT P6SM SKC
     FM161600 27004KT P6SM SKC
     FM161700 23004KT P6SM SKC
     FM161800 20006KT P6SM SKC
     FM170200 16009KT P6SM FEW170 WS010/21040KT
     FM171100 17008KT P6SM BKN070 WS015/23035KT=

USA.gov is the U.S. government's official web portal to all federal, state and local government web resources and services.